sensor_id;sensor_type;location;lat;lon;timestamp;P1;durP1;ratioP1;P2;durP2;ratioP2
73421;SDS011;61637;47.760;-122.022;2022-11-11T00:00:01;8.6;;;3.4;;
73421;SDS011;61637;47.760;-122.022;2022-11-11T00:02:01;7.6;;;3.6;;
73421;SDS011;61637;47.760;-122.022;2022-11-11T00:04:01;7.9;;;3.4;;
73421;SDS011;61637;47.760;-122.022;2022-11-11T00:06:02;7.9;;;3.4;;
73421;SDS011;61637;47.760;-122.022;2022-11-11T00:08:00;6.7;;;3.5;;
73421;SDS011;61637;47.760;-122.022;2022-11-11T00:10:00;7.6;;;3.7;;
73421;SDS011;61637;47.760;-122.022;2022-11-11T00:12:01;10.0;;;3.5;;
73421;SDS011;61637;47.760;-122.022;2022-11-11T00:14:00;9.3;;;3.7;;
73421;SDS011;61637;47.760;-122.022;2022-11-11T00:16:05;9.3;;;3.6;;
73421;SDS011;61637;47.760;-122.022;2022-11-11T00:18:00;8.0;;;3.8;;
73421;SDS011;61637;47.760;-122.022;2022-11-11T00:20:00;9.8;;;3.9;;
73421;SDS011;61637;47.760;-122.022;2022-11-11T00:22:00;8.6;;;3.7;;
73421;SDS011;61637;47.760;-122.022;2022-11-11T00:24:01;7.7;;;4.0;;
73421;SDS011;61637;47.760;-122.022;2022-11-11T00:26:00;10.7;;;4.4;;
73421;SDS011;61637;47.760;-122.022;2022-11-11T00:28:01;11.2;;;4.7;;
73421;SDS011;61637;47.760;-122.022;2022-11-11T00:30:01;20.8;;;10.1;;
73421;SDS011;61637;47.760;-122.022;2022-11-11T00:32:00;23.3;;;12.1;;
73421;SDS011;61637;47.760;-122.022;2022-11-11T00:34:00;21.6;;;10.1;;
73421;SDS011;61637;47.760;-122.022;2022-11-11T00:36:02;26.7;;;13.0;;
73421;SDS011;61637;47.760;-122.022;2022-11-11T00:38:06;26.2;;;13.7;;
73421;SDS011;61637;47.760;-122.022;2022-11-11T00:40:01;25.7;;;13.7;;
73421;SDS011;61637;47.760;-122.022;2022-11-11T00:42:00;21.8;;;11.0;;
73421;SDS011;61637;47.760;-122.022;2022-11-11T00:44:00;16.4;;;8.4;;
73421;SDS011;61637;47.760;-122.022;2022-11-11T00:46:00;12.9;;;6.9;;
73421;SDS011;61637;47.760;-122.022;2022-11-11T00:48:01;15.8;;;7.2;;
73421;SDS011;61637;47.760;-122.022;2022-11-11T00:50:01;11.8;;;5.6;;
73421;SDS011;61637;47.760;-122.022;2022-11-11T00:52:01;10.6;;;5.4;;
73421;SDS011;61637;47.760;-122.022;2022-11-11T00:54:00;9.8;;;4.7;;
73421;SDS011;61637;47.760;-122.022;2022-11-11T00:56:01;13.2;;;5.1;;
73421;SDS011;61637;47.760;-122.022;2022-11-11T00:58:00;10.5;;;4.9;;
73421;SDS011;61637;47.760;-122.022;2022-11-11T01:00:00;9.4;;;4.6;;
73421;SDS011;61637;47.760;-122.022;2022-11-11T01:02:01;9.6;;;5.0;;
73421;SDS011;61637;47.760;-122.022;2022-11-11T01:04:03;11.5;;;4.8;;
73421;SDS011;61637;47.760;-122.022;2022-11-11T01:06:02;9.2;;;4.4;;
73421;SDS011;61637;47.760;-122.022;2022-11-11T01:08:01;9.7;;;4.1;;
73421;SDS011;61637;47.760;-122.022;2022-11-11T01:10:00;11.0;;;4.3;;
73421;SDS011;61637;47.760;-122.022;2022-11-11T01:12:01;8.7;;;4.2;;
73421;SDS011;61637;47.760;-122.022;2022-11-11T01:14:00;10.6;;;4.5;;
73421;SDS011;61637;47.760;-122.022;2022-11-11T01:16:03;8.4;;;4.2;;
73421;SDS011;61637;47.760;-122.022;2022-11-11T01:18:00;9.6;;;4.3;;
73421;SDS011;61637;47.760;-122.022;2022-11-11T01:20:00;8.1;;;4.2;;
73421;SDS011;61637;47.760;-122.022;2022-11-11T01:22:00;8.9;;;4.5;;
73421;SDS011;61637;47.760;-122.022;2022-11-11T01:24:00;9.1;;;4.0;;
73421;SDS011;61637;47.760;-122.022;2022-11-11T01:26:01;8.7;;;4.2;;
73421;SDS011;61637;47.760;-122.022;2022-11-11T01:28:01;7.9;;;4.0;;
73421;SDS011;61637;47.760;-122.022;2022-11-11T01:30:00;8.8;;;4.0;;
73421;SDS011;61637;47.760;-122.022;2022-11-11T01:32:00;7.6;;;3.9;;
73421;SDS011;61637;47.760;-122.022;2022-11-11T01:34:00;8.3;;;3.8;;
73421;SDS011;61637;47.760;-122.022;2022-11-11T01:36:05;10.2;;;4.2;;
73421;SDS011;61637;47.760;-122.022;2022-11-11T01:38:00;10.2;;;4.2;;
73421;SDS011;61637;47.760;-122.022;2022-11-11T01:40:01;10.5;;;3.8;;
73421;SDS011;61637;47.760;-122.022;2022-11-11T01:42:00;8.3;;;3.9;;
73421;SDS011;61637;47.760;-122.022;2022-11-11T01:44:02;8.2;;;3.6;;
73421;SDS011;61637;47.760;-122.022;2022-11-11T01:46:01;9.1;;;3.7;;
73421;SDS011;61637;47.760;-122.022;2022-11-11T01:48:01;8.8;;;3.4;;
73421;SDS011;61637;47.760;-122.022;2022-11-11T01:50:02;7.6;;;3.5;;
73421;SDS011;61637;47.760;-122.022;2022-11-11T01:52:05;8.7;;;3.7;;
73421;SDS011;61637;47.760;-122.022;2022-11-11T01:54:05;8.2;;;4.1;;
73421;SDS011;61637;47.760;-122.022;2022-11-11T01:56:02;9.7;;;3.8;;
73421;SDS011;61637;47.760;-122.022;2022-11-11T01:58:03;11.1;;;4.2;;
73421;SDS011;61637;47.760;-122.022;2022-11-11T02:00:04;9.1;;;4.2;;
73421;SDS011;61637;47.760;-122.022;2022-11-11T02:02:02;8.0;;;4.2;;
73421;SDS011;61637;47.760;-122.022;2022-11-11T02:04:02;9.6;;;4.2;;
73421;SDS011;61637;47.760;-122.022;2022-11-11T02:06:01;8.7;;;4.0;;
73421;SDS011;61637;47.760;-122.022;2022-11-11T02:08:04;10.1;;;3.8;;
73421;SDS011;61637;47.760;-122.022;2022-11-11T02:10:02;11.3;;;4.3;;
73421;SDS011;61637;47.760;-122.022;2022-11-11T02:12:05;10.1;;;4.0;;
73421;SDS011;61637;47.760;-122.022;2022-11-11T02:14:00;9.7;;;4.1;;
73421;SDS011;61637;47.760;-122.022;2022-11-11T02:16:01;8.8;;;4.4;;
73421;SDS011;61637;47.760;-122.022;2022-11-11T02:18:01;9.1;;;4.2;;
73421;SDS011;61637;47.760;-122.022;2022-11-11T02:20:03;9.3;;;4.1;;
73421;SDS011;61637;47.760;-122.022;2022-11-11T02:22:01;11.0;;;4.0;;
73421;SDS011;61637;47.760;-122.022;2022-11-11T02:24:02;12.8;;;4.2;;
73421;SDS011;61637;47.760;-122.022;2022-11-11T02:26:02;8.6;;;4.3;;
73421;SDS011;61637;47.760;-122.022;2022-11-11T02:28:05;9.1;;;4.1;;
73421;SDS011;61637;47.760;-122.022;2022-11-11T02:30:02;10.3;;;4.4;;
73421;SDS011;61637;47.760;-122.022;2022-11-11T02:32:01;8.8;;;4.1;;
73421;SDS011;61637;47.760;-122.022;2022-11-11T02:34:00;8.4;;;4.3;;
73421;SDS011;61637;47.760;-122.022;2022-11-11T02:36:01;9.7;;;4.7;;
73421;SDS011;61637;47.760;-122.022;2022-11-11T02:38:03;13.9;;;4.8;;
73421;SDS011;61637;47.760;-122.022;2022-11-11T02:40:03;9.8;;;5.5;;
73421;SDS011;61637;47.760;-122.022;2022-11-11T02:42:00;11.3;;;4.4;;
73421;SDS011;61637;47.760;-122.022;2022-11-11T02:44:00;12.2;;;5.1;;
73421;SDS011;61637;47.760;-122.022;2022-11-11T02:46:03;9.4;;;4.5;;
73421;SDS011;61637;47.760;-122.022;2022-11-11T02:48:00;9.3;;;4.5;;
73421;SDS011;61637;47.760;-122.022;2022-11-11T02:50:01;9.6;;;4.5;;
73421;SDS011;61637;47.760;-122.022;2022-11-11T02:52:01;9.8;;;5.7;;
73421;SDS011;61637;47.760;-122.022;2022-11-11T02:54:00;10.5;;;6.2;;
73421;SDS011;61637;47.760;-122.022;2022-11-11T02:56:00;10.1;;;5.7;;
73421;SDS011;61637;47.760;-122.022;2022-11-11T02:58:01;12.6;;;4.8;;
73421;SDS011;61637;47.760;-122.022;2022-11-11T03:00:01;10.7;;;4.8;;
73421;SDS011;61637;47.760;-122.022;2022-11-11T03:02:00;10.5;;;5.6;;
73421;SDS011;61637;47.760;-122.022;2022-11-11T03:04:01;10.6;;;6.7;;
73421;SDS011;61637;47.760;-122.022;2022-11-11T03:06:00;11.0;;;6.0;;
73421;SDS011;61637;47.760;-122.022;2022-11-11T03:08:01;10.0;;;5.9;;
73421;SDS011;61637;47.760;-122.022;2022-11-11T03:10:01;9.7;;;5.3;;
73421;SDS011;61637;47.760;-122.022;2022-11-11T03:12:00;10.3;;;4.5;;
73421;SDS011;61637;47.760;-122.022;2022-11-11T03:14:00;10.2;;;4.3;;
73421;SDS011;61637;47.760;-122.022;2022-11-11T03:16:01;8.5;;;4.2;;
73421;SDS011;61637;47.760;-122.022;2022-11-11T03:18:00;7.6;;;3.7;;
73421;SDS011;61637;47.760;-122.022;2022-11-11T03:20:01;9.4;;;4.1;;
73421;SDS011;61637;47.760;-122.022;2022-11-11T03:22:00;9.9;;;4.1;;
73421;SDS011;61637;47.760;-122.022;2022-11-11T03:24:00;10.6;;;4.4;;
73421;SDS011;61637;47.760;-122.022;2022-11-11T03:26:00;7.9;;;4.2;;
73421;SDS011;61637;47.760;-122.022;2022-11-11T03:28:01;9.7;;;4.2;;
73421;SDS011;61637;47.760;-122.022;2022-11-11T03:30:00;9.0;;;4.0;;
73421;SDS011;61637;47.760;-122.022;2022-11-11T03:32:00;9.3;;;3.8;;
73421;SDS011;61637;47.760;-122.022;2022-11-11T03:34:00;10.0;;;4.0;;
73421;SDS011;61637;47.760;-122.022;2022-11-11T03:36:00;7.7;;;3.4;;
73421;SDS011;61637;47.760;-122.022;2022-11-11T03:38:01;7.6;;;3.5;;
73421;SDS011;61637;47.760;-122.022;2022-11-11T03:40:01;8.7;;;3.2;;
73421;SDS011;61637;47.760;-122.022;2022-11-11T03:42:00;8.5;;;3.1;;
73421;SDS011;61637;47.760;-122.022;2022-11-11T03:44:00;7.3;;;3.1;;
73421;SDS011;61637;47.760;-122.022;2022-11-11T03:46:03;6.5;;;3.3;;
73421;SDS011;61637;47.760;-122.022;2022-11-11T03:48:00;7.6;;;3.6;;
73421;SDS011;61637;47.760;-122.022;2022-11-11T03:50:00;6.9;;;3.0;;
73421;SDS011;61637;47.760;-122.022;2022-11-11T03:52:01;6.9;;;3.0;;
73421;SDS011;61637;47.760;-122.022;2022-11-11T03:54:00;6.6;;;2.8;;
73421;SDS011;61637;47.760;-122.022;2022-11-11T03:56:00;7.0;;;3.3;;
73421;SDS011;61637;47.760;-122.022;2022-11-11T03:58:00;9.3;;;3.5;;
73421;SDS011;61637;47.760;-122.022;2022-11-11T04:00:01;6.7;;;3.5;;
73421;SDS011;61637;47.760;-122.022;2022-11-11T04:02:00;9.3;;;3.7;;
73421;SDS011;61637;47.760;-122.022;2022-11-11T04:04:00;8.0;;;4.1;;
73421;SDS011;61637;47.760;-122.022;2022-11-11T04:06:01;9.0;;;5.5;;
73421;SDS011;61637;47.760;-122.022;2022-11-11T04:08:01;8.9;;;5.2;;
73421;SDS011;61637;47.760;-122.022;2022-11-11T04:10:00;7.1;;;4.4;;
73421;SDS011;61637;47.760;-122.022;2022-11-11T04:12:00;7.8;;;5.1;;
73421;SDS011;61637;47.760;-122.022;2022-11-11T04:14:03;unknown;;;unknown;;
73421;SDS011;61637;47.760;-122.022;2022-11-11T04:16:00;7.8;;;5.9;;
73421;SDS011;61637;47.760;-122.022;2022-11-11T04:18:00;9.5;;;5.8;;
73421;SDS011;61637;47.760;-122.022;2022-11-11T04:20:01;7.6;;;4.4;;
73421;SDS011;61637;47.760;-122.022;2022-11-11T04:22:01;8.2;;;6.3;;
73421;SDS011;61637;47.760;-122.022;2022-11-11T04:24:01;9.2;;;7.0;;
73421;SDS011;61637;47.760;-122.022;2022-11-11T04:26:01;11.8;;;8.9;;
73421;SDS011;61637;47.760;-122.022;2022-11-11T04:28:01;10.7;;;9.6;;
73421;SDS011;61637;47.760;-122.022;2022-11-11T04:30:00;10.8;;;9.6;;
73421;SDS011;61637;47.760;-122.022;2022-11-11T04:32:02;11.0;;;9.7;;
73421;SDS011;61637;47.760;-122.022;2022-11-11T04:34:00;13.3;;;10.7;;
73421;SDS011;61637;47.760;-122.022;2022-11-11T04:36:01;13.4;;;12.1;;
73421;SDS011;61637;47.760;-122.022;2022-11-11T04:38:01;14.4;;;12.9;;
73421;SDS011;61637;47.760;-122.022;2022-11-11T04:40:01;13.8;;;12.5;;
73421;SDS011;61637;47.760;-122.022;2022-11-11T04:42:00;14.7;;;13.2;;
73421;SDS011;61637;47.760;-122.022;2022-11-11T04:44:00;14.7;;;13.2;;
73421;SDS011;61637;47.760;-122.022;2022-11-11T04:46:00;14.5;;;13.0;;
73421;SDS011;61637;47.760;-122.022;2022-11-11T04:48:03;15.0;;;13.4;;
73421;SDS011;61637;47.760;-122.022;2022-11-11T04:50:01;14.3;;;12.4;;
73421;SDS011;61637;47.760;-122.022;2022-11-11T04:52:00;15.0;;;13.4;;
73421;SDS011;61637;47.760;-122.022;2022-11-11T04:54:00;14.9;;;13.5;;
73421;SDS011;61637;47.760;-122.022;2022-11-11T04:56:00;15.7;;;14.2;;
73421;SDS011;61637;47.760;-122.022;2022-11-11T04:58:00;16.3;;;14.6;;
73421;SDS011;61637;47.760;-122.022;2022-11-11T05:00:00;16.6;;;14.9;;
73421;SDS011;61637;47.760;-122.022;2022-11-11T05:02:01;16.5;;;15.0;;
73421;SDS011;61637;47.760;-122.022;2022-11-11T05:04:00;16.8;;;15.1;;
73421;SDS011;61637;47.760;-122.022;2022-11-11T05:06:01;16.8;;;15.2;;
73421;SDS011;61637;47.760;-122.022;2022-11-11T05:08:01;17.0;;;15.4;;
73421;SDS011;61637;47.760;-122.022;2022-11-11T05:10:01;17.0;;;15.5;;
73421;SDS011;61637;47.760;-122.022;2022-11-11T05:12:01;18.2;;;16.4;;
73421;SDS011;61637;47.760;-122.022;2022-11-11T05:14:02;16.9;;;15.4;;
73421;SDS011;61637;47.760;-122.022;2022-11-11T05:16:00;16.5;;;15.0;;
73421;SDS011;61637;47.760;-122.022;2022-11-11T05:18:00;16.5;;;14.8;;
73421;SDS011;61637;47.760;-122.022;2022-11-11T05:20:00;17.3;;;15.6;;
73421;SDS011;61637;47.760;-122.022;2022-11-11T05:22:07;16.3;;;14.8;;
73421;SDS011;61637;47.760;-122.022;2022-11-11T05:24:00;17.0;;;15.3;;
73421;SDS011;61637;47.760;-122.022;2022-11-11T05:26:01;17.4;;;15.8;;
73421;SDS011;61637;47.760;-122.022;2022-11-11T05:28:00;17.3;;;15.8;;
73421;SDS011;61637;47.760;-122.022;2022-11-11T05:30:01;17.6;;;16.0;;
73421;SDS011;61637;47.760;-122.022;2022-11-11T05:32:01;17.4;;;15.9;;
73421;SDS011;61637;47.760;-122.022;2022-11-11T05:34:00;18.3;;;16.5;;
73421;SDS011;61637;47.760;-122.022;2022-11-11T05:36:00;19.5;;;17.5;;
73421;SDS011;61637;47.760;-122.022;2022-11-11T05:38:02;20.8;;;19.0;;
73421;SDS011;61637;47.760;-122.022;2022-11-11T05:40:01;19.3;;;17.6;;
73421;SDS011;61637;47.760;-122.022;2022-11-11T05:42:00;19.7;;;17.8;;
73421;SDS011;61637;47.760;-122.022;2022-11-11T05:44:00;19.8;;;18.1;;
73421;SDS011;61637;47.760;-122.022;2022-11-11T05:46:01;19.5;;;17.6;;
73421;SDS011;61637;47.760;-122.022;2022-11-11T05:48:01;19.1;;;17.4;;
73421;SDS011;61637;47.760;-122.022;2022-11-11T05:50:01;19.2;;;17.6;;
73421;SDS011;61637;47.760;-122.022;2022-11-11T05:52:01;20.0;;;17.8;;
73421;SDS011;61637;47.760;-122.022;2022-11-11T05:54:00;18.8;;;17.1;;
73421;SDS011;61637;47.760;-122.022;2022-11-11T05:56:01;18.8;;;17.1;;
73421;SDS011;61637;47.760;-122.022;2022-11-11T05:58:00;19.0;;;17.3;;
73421;SDS011;61637;47.760;-122.022;2022-11-11T06:00:01;19.7;;;17.7;;
73421;SDS011;61637;47.760;-122.022;2022-11-11T06:02:01;19.4;;;17.6;;
73421;SDS011;61637;47.760;-122.022;2022-11-11T06:04:01;17.8;;;16.1;;
73421;SDS011;61637;47.760;-122.022;2022-11-11T06:06:01;16.8;;;15.3;;
73421;SDS011;61637;47.760;-122.022;2022-11-11T06:08:00;18.1;;;16.5;;
73421;SDS011;61637;47.760;-122.022;2022-11-11T06:10:00;18.4;;;16.8;;
73421;SDS011;61637;47.760;-122.022;2022-11-11T06:12:01;18.3;;;16.7;;
73421;SDS011;61637;47.760;-122.022;2022-11-11T06:14:01;17.2;;;15.6;;
73421;SDS011;61637;47.760;-122.022;2022-11-11T06:16:02;17.9;;;16.4;;
73421;SDS011;61637;47.760;-122.022;2022-11-11T06:18:01;18.3;;;16.7;;
73421;SDS011;61637;47.760;-122.022;2022-11-11T06:20:00;18.0;;;16.2;;
73421;SDS011;61637;47.760;-122.022;2022-11-11T06:22:00;19.1;;;17.4;;
73421;SDS011;61637;47.760;-122.022;2022-11-11T06:24:00;18.1;;;16.4;;
73421;SDS011;61637;47.760;-122.022;2022-11-11T06:26:01;18.5;;;16.8;;
73421;SDS011;61637;47.760;-122.022;2022-11-11T06:28:01;16.8;;;15.2;;
73421;SDS011;61637;47.760;-122.022;2022-11-11T06:30:00;17.2;;;15.7;;
73421;SDS011;61637;47.760;-122.022;2022-11-11T06:32:00;17.2;;;15.7;;
73421;SDS011;61637;47.760;-122.022;2022-11-11T06:34:00;17.5;;;16.0;;
73421;SDS011;61637;47.760;-122.022;2022-11-11T06:36:02;16.7;;;15.3;;
73421;SDS011;61637;47.760;-122.022;2022-11-11T06:38:01;18.0;;;16.3;;
73421;SDS011;61637;47.760;-122.022;2022-11-11T06:40:00;17.6;;;15.9;;
73421;SDS011;61637;47.760;-122.022;2022-11-11T06:42:00;17.0;;;15.3;;
73421;SDS011;61637;47.760;-122.022;2022-11-11T06:44:00;18.0;;;16.2;;
73421;SDS011;61637;47.760;-122.022;2022-11-11T06:46:01;18.7;;;17.0;;
73421;SDS011;61637;47.760;-122.022;2022-11-11T06:48:01;17.6;;;16.1;;
73421;SDS011;61637;47.760;-122.022;2022-11-11T06:50:01;17.8;;;16.3;;
73421;SDS011;61637;47.760;-122.022;2022-11-11T06:52:00;17.9;;;16.2;;
73421;SDS011;61637;47.760;-122.022;2022-11-11T06:54:00;17.7;;;16.2;;
73421;SDS011;61637;47.760;-122.022;2022-11-11T06:56:01;17.2;;;15.6;;
73421;SDS011;61637;47.760;-122.022;2022-11-11T06:58:06;16.9;;;15.3;;
73421;SDS011;61637;47.760;-122.022;2022-11-11T07:00:02;18.1;;;16.2;;
73421;SDS011;61637;47.760;-122.022;2022-11-11T07:02:01;17.0;;;15.5;;
73421;SDS011;61637;47.760;-122.022;2022-11-11T07:04:00;16.8;;;15.3;;
73421;SDS011;61637;47.760;-122.022;2022-11-11T07:06:02;17.7;;;16.1;;
73421;SDS011;61637;47.760;-122.022;2022-11-11T07:08:01;16.6;;;15.0;;
73421;SDS011;61637;47.760;-122.022;2022-11-11T07:10:00;18.0;;;16.2;;
73421;SDS011;61637;47.760;-122.022;2022-11-11T07:12:01;17.5;;;15.9;;
73421;SDS011;61637;47.760;-122.022;2022-11-11T07:14:01;17.3;;;15.8;;
73421;SDS011;61637;47.760;-122.022;2022-11-11T07:16:00;16.5;;;15.0;;
73421;SDS011;61637;47.760;-122.022;2022-11-11T07:18:01;17.0;;;15.5;;
73421;SDS011;61637;47.760;-122.022;2022-11-11T07:20:01;16.5;;;15.0;;
73421;SDS011;61637;47.760;-122.022;2022-11-11T07:22:00;16.7;;;15.1;;
73421;SDS011;61637;47.760;-122.022;2022-11-11T07:24:01;16.5;;;15.0;;
73421;SDS011;61637;47.760;-122.022;2022-11-11T07:26:01;17.3;;;15.8;;
73421;SDS011;61637;47.760;-122.022;2022-11-11T07:28:00;17.1;;;15.5;;
73421;SDS011;61637;47.760;-122.022;2022-11-11T07:30:00;17.3;;;15.7;;
73421;SDS011;61637;47.760;-122.022;2022-11-11T07:32:01;16.5;;;15.1;;
73421;SDS011;61637;47.760;-122.022;2022-11-11T07:34:00;17.0;;;15.4;;
73421;SDS011;61637;47.760;-122.022;2022-11-11T07:36:01;17.3;;;15.9;;
73421;SDS011;61637;47.760;-122.022;2022-11-11T07:38:01;17.1;;;15.5;;
73421;SDS011;61637;47.760;-122.022;2022-11-11T07:40:00;16.9;;;15.4;;
73421;SDS011;61637;47.760;-122.022;2022-11-11T07:42:01;16.8;;;15.4;;
73421;SDS011;61637;47.760;-122.022;2022-11-11T07:44:01;20.5;;;15.7;;
73421;SDS011;61637;47.760;-122.022;2022-11-11T07:46:01;16.8;;;15.4;;
73421;SDS011;61637;47.760;-122.022;2022-11-11T07:48:00;17.2;;;15.5;;
73421;SDS011;61637;47.760;-122.022;2022-11-11T07:50:02;17.1;;;15.6;;
73421;SDS011;61637;47.760;-122.022;2022-11-11T07:52:00;17.4;;;15.8;;
73421;SDS011;61637;47.760;-122.022;2022-11-11T07:54:01;17.7;;;16.2;;
73421;SDS011;61637;47.760;-122.022;2022-11-11T07:56:00;16.7;;;15.1;;
73421;SDS011;61637;47.760;-122.022;2022-11-11T07:58:00;16.1;;;14.8;;
73421;SDS011;61637;47.760;-122.022;2022-11-11T08:00:01;16.3;;;14.8;;
73421;SDS011;61637;47.760;-122.022;2022-11-11T08:02:01;15.3;;;13.9;;
73421;SDS011;61637;47.760;-122.022;2022-11-11T08:04:00;16.0;;;14.6;;
73421;SDS011;61637;47.760;-122.022;2022-11-11T08:06:02;17.1;;;15.3;;
73421;SDS011;61637;47.760;-122.022;2022-11-11T08:08:02;17.4;;;15.6;;
73421;SDS011;61637;47.760;-122.022;2022-11-11T08:10:01;17.5;;;15.9;;
73421;SDS011;61637;47.760;-122.022;2022-11-11T08:12:00;17.6;;;15.5;;
73421;SDS011;61637;47.760;-122.022;2022-11-11T08:14:01;17.0;;;15.4;;
73421;SDS011;61637;47.760;-122.022;2022-11-11T08:16:00;17.0;;;15.5;;
73421;SDS011;61637;47.760;-122.022;2022-11-11T08:18:00;16.2;;;14.6;;
73421;SDS011;61637;47.760;-122.022;2022-11-11T08:20:00;16.1;;;14.5;;
73421;SDS011;61637;47.760;-122.022;2022-11-11T08:22:01;16.3;;;14.8;;
73421;SDS011;61637;47.760;-122.022;2022-11-11T08:24:00;16.1;;;14.7;;
73421;SDS011;61637;47.760;-122.022;2022-11-11T08:26:03;16.3;;;14.9;;
73421;SDS011;61637;47.760;-122.022;2022-11-11T08:28:02;16.0;;;14.6;;
73421;SDS011;61637;47.760;-122.022;2022-11-11T08:30:02;16.7;;;15.1;;
73421;SDS011;61637;47.760;-122.022;2022-11-11T08:32:01;16.4;;;15.0;;
73421;SDS011;61637;47.760;-122.022;2022-11-11T08:34:00;15.4;;;14.1;;
73421;SDS011;61637;47.760;-122.022;2022-11-11T08:36:02;15.2;;;13.8;;
73421;SDS011;61637;47.760;-122.022;2022-11-11T08:38:01;15.3;;;14.0;;
73421;SDS011;61637;47.760;-122.022;2022-11-11T08:40:00;15.6;;;14.3;;
73421;SDS011;61637;47.760;-122.022;2022-11-11T08:42:00;17.0;;;15.3;;
73421;SDS011;61637;47.760;-122.022;2022-11-11T08:44:01;15.6;;;14.0;;
73421;SDS011;61637;47.760;-122.022;2022-11-11T08:46:02;16.1;;;14.7;;
73421;SDS011;61637;47.760;-122.022;2022-11-11T08:48:01;16.7;;;15.2;;
73421;SDS011;61637;47.760;-122.022;2022-11-11T08:50:01;16.3;;;14.8;;
73421;SDS011;61637;47.760;-122.022;2022-11-11T08:52:00;16.1;;;14.8;;
73421;SDS011;61637;47.760;-122.022;2022-11-11T08:54:00;17.3;;;15.7;;
73421;SDS011;61637;47.760;-122.022;2022-11-11T08:56:02;17.3;;;15.7;;
73421;SDS011;61637;47.760;-122.022;2022-11-11T08:58:03;16.9;;;15.4;;
73421;SDS011;61637;47.760;-122.022;2022-11-11T09:00:01;16.7;;;15.1;;
73421;SDS011;61637;47.760;-122.022;2022-11-11T09:02:01;16.7;;;15.2;;
73421;SDS011;61637;47.760;-122.022;2022-11-11T09:04:01;17.3;;;15.6;;
73421;SDS011;61637;47.760;-122.022;2022-11-11T09:06:00;16.5;;;15.0;;
73421;SDS011;61637;47.760;-122.022;2022-11-11T09:08:02;16.5;;;15.0;;
73421;SDS011;61637;47.760;-122.022;2022-11-11T09:10:00;16.6;;;15.2;;
73421;SDS011;61637;47.760;-122.022;2022-11-11T09:12:01;16.2;;;14.8;;
73421;SDS011;61637;47.760;-122.022;2022-11-11T09:14:01;16.3;;;15.0;;
73421;SDS011;61637;47.760;-122.022;2022-11-11T09:16:00;15.8;;;14.5;;
73421;SDS011;61637;47.760;-122.022;2022-11-11T09:18:00;16.3;;;14.8;;
73421;SDS011;61637;47.760;-122.022;2022-11-11T09:20:01;16.6;;;15.2;;
73421;SDS011;61637;47.760;-122.022;2022-11-11T09:22:01;17.1;;;15.6;;
73421;SDS011;61637;47.760;-122.022;2022-11-11T09:24:00;17.6;;;16.0;;
73421;SDS011;61637;47.760;-122.022;2022-11-11T09:26:01;17.3;;;15.6;;
73421;SDS011;61637;47.760;-122.022;2022-11-11T09:28:00;16.1;;;14.5;;
73421;SDS011;61637;47.760;-122.022;2022-11-11T09:30:01;15.3;;;14.0;;
73421;SDS011;61637;47.760;-122.022;2022-11-11T09:32:00;16.1;;;14.5;;
73421;SDS011;61637;47.760;-122.022;2022-11-11T09:34:00;15.9;;;14.5;;
73421;SDS011;61637;47.760;-122.022;2022-11-11T09:36:00;19.0;;;13.7;;
73421;SDS011;61637;47.760;-122.022;2022-11-11T09:38:01;15.0;;;13.8;;
73421;SDS011;61637;47.760;-122.022;2022-11-11T09:40:01;15.6;;;14.0;;
73421;SDS011;61637;47.760;-122.022;2022-11-11T09:42:05;16.2;;;14.8;;
73421;SDS011;61637;47.760;-122.022;2022-11-11T09:44:02;16.1;;;14.7;;
73421;SDS011;61637;47.760;-122.022;2022-11-11T09:46:13;15.2;;;13.9;;
73421;SDS011;61637;47.760;-122.022;2022-11-11T09:48:10;15.6;;;14.3;;
73421;SDS011;61637;47.760;-122.022;2022-11-11T09:50:04;15.6;;;14.2;;
73421;SDS011;61637;47.760;-122.022;2022-11-11T09:52:07;15.7;;;14.4;;
73421;SDS011;61637;47.760;-122.022;2022-11-11T09:54:05;15.4;;;14.0;;
73421;SDS011;61637;47.760;-122.022;2022-11-11T09:56:05;15.3;;;14.0;;
73421;SDS011;61637;47.760;-122.022;2022-11-11T09:58:04;15.7;;;14.2;;
73421;SDS011;61637;47.760;-122.022;2022-11-11T10:00:03;15.2;;;13.8;;
73421;SDS011;61637;47.760;-122.022;2022-11-11T10:02:01;15.1;;;13.9;;
73421;SDS011;61637;47.760;-122.022;2022-11-11T10:04:10;15.8;;;14.5;;
73421;SDS011;61637;47.760;-122.022;2022-11-11T10:06:03;15.8;;;14.4;;
73421;SDS011;61637;47.760;-122.022;2022-11-11T10:08:04;15.6;;;14.3;;
73421;SDS011;61637;47.760;-122.022;2022-11-11T10:10:10;15.2;;;13.7;;
73421;SDS011;61637;47.760;-122.022;2022-11-11T10:12:06;15.7;;;14.3;;
73421;SDS011;61637;47.760;-122.022;2022-11-11T10:14:01;15.7;;;14.3;;
73421;SDS011;61637;47.760;-122.022;2022-11-11T10:16:08;15.3;;;13.9;;
73421;SDS011;61637;47.760;-122.022;2022-11-11T10:18:08;14.9;;;13.6;;
73421;SDS011;61637;47.760;-122.022;2022-11-11T10:20:11;15.6;;;14.3;;
73421;SDS011;61637;47.760;-122.022;2022-11-11T10:22:08;15.6;;;14.3;;
73421;SDS011;61637;47.760;-122.022;2022-11-11T10:24:05;15.1;;;13.7;;
73421;SDS011;61637;47.760;-122.022;2022-11-11T10:26:06;14.8;;;13.6;;
73421;SDS011;61637;47.760;-122.022;2022-11-11T10:28:03;15.2;;;13.9;;
73421;SDS011;61637;47.760;-122.022;2022-11-11T10:30:12;15.5;;;13.9;;
73421;SDS011;61637;47.760;-122.022;2022-11-11T10:32:04;15.4;;;14.1;;
73421;SDS011;61637;47.760;-122.022;2022-11-11T10:34:04;15.9;;;14.6;;
73421;SDS011;61637;47.760;-122.022;2022-11-11T10:36:03;14.9;;;13.5;;
73421;SDS011;61637;47.760;-122.022;2022-11-11T10:38:10;16.0;;;14.6;;
73421;SDS011;61637;47.760;-122.022;2022-11-11T10:40:06;15.6;;;14.3;;
73421;SDS011;61637;47.760;-122.022;2022-11-11T10:42:01;15.4;;;14.1;;
73421;SDS011;61637;47.760;-122.022;2022-11-11T10:44:13;15.6;;;14.1;;
73421;SDS011;61637;47.760;-122.022;2022-11-11T10:46:05;15.6;;;14.2;;
73421;SDS011;61637;47.760;-122.022;2022-11-11T10:48:04;16.0;;;14.6;;
73421;SDS011;61637;47.760;-122.022;2022-11-11T10:50:07;15.6;;;14.2;;
73421;SDS011;61637;47.760;-122.022;2022-11-11T10:52:04;14.7;;;13.4;;
73421;SDS011;61637;47.760;-122.022;2022-11-11T10:54:05;14.4;;;13.2;;
73421;SDS011;61637;47.760;-122.022;2022-11-11T10:56:05;16.8;;;15.3;;
73421;SDS011;61637;47.760;-122.022;2022-11-11T10:58:06;15.3;;;14.0;;
73421;SDS011;61637;47.760;-122.022;2022-11-11T11:00:04;14.8;;;13.5;;
73421;SDS011;61637;47.760;-122.022;2022-11-11T11:02:08;14.2;;;13.0;;
73421;SDS011;61637;47.760;-122.022;2022-11-11T11:04:05;15.5;;;14.2;;
73421;SDS011;61637;47.760;-122.022;2022-11-11T11:06:07;15.7;;;14.4;;
73421;SDS011;61637;47.760;-122.022;2022-11-11T11:08:07;15.5;;;14.1;;
73421;SDS011;61637;47.760;-122.022;2022-11-11T11:10:04;15.5;;;14.1;;
73421;SDS011;61637;47.760;-122.022;2022-11-11T11:12:07;16.5;;;15.0;;
73421;SDS011;61637;47.760;-122.022;2022-11-11T11:14:05;16.4;;;14.9;;
73421;SDS011;61637;47.760;-122.022;2022-11-11T11:16:05;15.5;;;14.0;;
73421;SDS011;61637;47.760;-122.022;2022-11-11T11:18:04;16.0;;;14.7;;
73421;SDS011;61637;47.760;-122.022;2022-11-11T11:20:10;16.7;;;14.8;;
73421;SDS011;61637;47.760;-122.022;2022-11-11T11:22:03;15.2;;;13.7;;
73421;SDS011;61637;47.760;-122.022;2022-11-11T11:24:00;14.4;;;13.2;;
73421;SDS011;61637;47.760;-122.022;2022-11-11T11:26:00;15.9;;;14.2;;
73421;SDS011;61637;47.760;-122.022;2022-11-11T11:28:07;15.0;;;13.4;;
73421;SDS011;61637;47.760;-122.022;2022-11-11T11:30:10;15.5;;;14.2;;
73421;SDS011;61637;47.760;-122.022;2022-11-11T11:32:11;15.2;;;13.7;;
73421;SDS011;61637;47.760;-122.022;2022-11-11T11:34:00;15.5;;;14.1;;
73421;SDS011;61637;47.760;-122.022;2022-11-11T11:36:14;15.7;;;14.1;;